createdAt,value
2022-10-06T00:01:19.688Z,4.00
2022-10-06T00:03:48.630Z,3.70
2022-10-06T00:06:18.554Z,3.60
2022-10-06T00:08:47.558Z,4.30
2022-10-06T00:11:17.609Z,4.10
2022-10-06T00:13:46.075Z,3.50
2022-10-06T00:16:23.762Z,3.80
2022-10-06T00:18:52.315Z,4.10
2022-10-06T00:21:20.662Z,3.60
2022-10-06T00:23:49.071Z,3.50
2022-10-06T00:26:17.705Z,3.60
2022-10-06T00:28:50.362Z,3.40
2022-10-06T00:31:20.013Z,3.20
2022-10-06T00:33:50.011Z,3.50
2022-10-06T00:36:19.013Z,4.10
2022-10-06T00:38:47.909Z,3.60
2022-10-06T00:41:18.486Z,3.50
2022-10-06T00:43:53.917Z,3.50
2022-10-06T00:46:46.637Z,3.30
2022-10-06T00:49:26.430Z,3.60
2022-10-06T00:52:06.038Z,3.20
2022-10-06T00:54:36.456Z,3.30
2022-10-06T00:57:06.869Z,3.00
2022-10-06T00:59:37.401Z,3.30
2022-10-06T01:02:28.968Z,3.70
2022-10-06T01:05:01.050Z,3.10
2022-10-06T01:07:31.747Z,3.20
2022-10-06T01:10:00.236Z,3.50
2022-10-06T01:12:31.938Z,3.80
2022-10-06T01:15:00.722Z,3.20
2022-10-06T01:17:42.525Z,3.80
2022-10-06T01:20:15.851Z,3.30
2022-10-06T01:22:50.697Z,3.40
2022-10-06T01:25:20.755Z,3.50
2022-10-06T01:27:54.090Z,3.60
2022-10-06T01:30:36.666Z,3.20
2022-10-06T01:33:05.906Z,3.30
2022-10-06T01:35:35.117Z,3.40
2022-10-06T01:38:04.593Z,3.30
2022-10-06T01:43:03.081Z,2.90
2022-10-06T01:45:31.803Z,2.80
2022-10-06T01:48:00.693Z,3.00
2022-10-06T01:50:29.276Z,3.20
2022-10-06T01:52:57.859Z,3.00
2022-10-06T01:55:26.955Z,2.80
2022-10-06T01:57:56.866Z,2.70
2022-10-06T02:00:25.961Z,2.80
2022-10-06T02:02:55.416Z,2.80
2022-10-06T02:05:24.234Z,2.80
2022-10-06T02:07:53.945Z,3.30
2022-10-06T02:10:22.851Z,2.90
2022-10-06T02:12:54.997Z,2.90
2022-10-06T02:15:25.294Z,3.00
2022-10-06T02:17:54.847Z,2.80
2022-10-06T02:20:27.925Z,3.00
2022-10-06T02:22:56.316Z,3.40
2022-10-06T02:25:24.898Z,2.90
2022-10-06T02:27:55.597Z,2.80
2022-10-06T02:30:24.111Z,3.80
2022-10-06T02:32:53.642Z,3.40
2022-10-06T02:35:23.109Z,3.60
2022-10-06T02:37:51.806Z,3.10
2022-10-06T02:40:20.993Z,3.40
2022-10-06T02:42:49.587Z,3.10
2022-10-06T02:45:20.115Z,3.10
2022-10-06T02:47:48.701Z,3.20
2022-10-06T02:50:17.375Z,3.30
2022-10-06T02:55:15.606Z,3.40
2022-10-06T02:57:44.247Z,3.00
2022-10-06T03:00:15.362Z,2.70
2022-10-06T03:02:44.075Z,3.10
2022-10-06T03:05:12.674Z,3.10
2022-10-06T03:07:41.153Z,3.70
2022-10-06T03:10:10.043Z,3.20
2022-10-06T03:12:38.809Z,3.70
2022-10-06T03:15:08.909Z,3.20
2022-10-06T03:17:37.329Z,3.40
2022-10-06T03:20:08.179Z,3.90
2022-10-06T03:22:36.528Z,3.90
2022-10-06T03:25:05.152Z,4.00
2022-10-06T03:27:34.120Z,3.40
2022-10-06T03:30:06.736Z,3.50
2022-10-06T03:32:35.688Z,3.40
2022-10-06T03:35:04.858Z,3.90
2022-10-06T03:37:33.880Z,3.80
2022-10-06T03:40:02.667Z,4.10
2022-10-06T03:42:32.475Z,4.10
2022-10-06T03:45:00.962Z,4.70
2022-10-06T03:47:32.489Z,6.00
2022-10-06T03:50:01.509Z,6.30
2022-10-06T03:52:30.498Z,6.80
2022-10-06T03:54:58.918Z,6.40
2022-10-06T03:57:27.450Z,5.90
2022-10-06T03:59:59.979Z,7.00
2022-10-06T04:02:28.728Z,5.70
2022-10-06T04:04:57.309Z,6.20
2022-10-06T04:07:25.917Z,5.20
2022-10-06T04:09:54.427Z,5.80
2022-10-06T04:12:23.537Z,4.60
2022-10-06T04:14:55.354Z,4.20
2022-10-06T04:17:26.409Z,4.10
2022-10-06T04:19:54.766Z,4.10
2022-10-06T04:22:23.180Z,4.40
2022-10-06T04:24:51.661Z,4.70
2022-10-06T04:27:29.648Z,4.20
2022-10-06T04:30:13.555Z,4.00
2022-10-06T04:32:42.477Z,3.90
2022-10-06T04:35:10.932Z,3.90
2022-10-06T04:37:39.645Z,3.50
2022-10-06T04:40:08.987Z,3.80
2022-10-06T04:42:38.179Z,4.50
2022-10-06T04:45:10.769Z,4.30
2022-10-06T04:47:40.749Z,4.30
2022-10-06T04:50:10.414Z,4.50
2022-10-06T04:52:41.259Z,4.70
2022-10-06T04:55:11.326Z,4.40
2022-10-06T04:57:39.916Z,5.50
2022-10-06T05:00:22.950Z,5.80
2022-10-06T05:02:56.136Z,6.60
2022-10-06T05:05:24.837Z,5.90
2022-10-06T05:07:54.782Z,6.30
2022-10-06T05:10:23.241Z,6.40
2022-10-06T05:12:51.750Z,7.30
2022-10-06T05:15:20.473Z,6.90
2022-10-06T05:17:49.040Z,5.60
2022-10-06T05:20:18.146Z,6.30
2022-10-06T05:22:47.272Z,4.80
2022-10-06T05:25:15.900Z,5.00
2022-10-06T05:27:44.483Z,4.80
2022-10-06T05:30:12.956Z,4.50
2022-10-06T05:32:41.290Z,5.30
2022-10-06T05:35:09.736Z,5.40
2022-10-06T05:37:38.220Z,5.70
2022-10-06T05:40:07.669Z,5.00
2022-10-06T05:42:36.035Z,4.90
2022-10-06T05:45:04.952Z,5.50
2022-10-06T05:47:34.519Z,4.10
2022-10-06T05:50:03.908Z,4.60
2022-10-06T05:52:32.270Z,4.30
2022-10-06T05:55:00.669Z,5.40
2022-10-06T05:57:29.367Z,5.00
2022-10-06T05:59:58.104Z,4.50
2022-10-06T06:02:27.718Z,4.20
2022-10-06T06:04:56.283Z,4.20
2022-10-06T06:07:24.634Z,4.40
2022-10-06T06:09:54.128Z,4.40
2022-10-06T06:12:23.408Z,4.20
2022-10-06T06:15:14.539Z,4.60
2022-10-06T06:17:50.826Z,4.60
2022-10-06T06:20:20.157Z,4.60
2022-10-06T06:22:53.738Z,4.40
2022-10-06T06:25:24.852Z,4.70
2022-10-06T06:27:56.195Z,4.40
2022-10-06T06:30:25.587Z,4.80
2022-10-06T06:35:28.444Z,4.90
2022-10-06T06:37:59.664Z,4.40
2022-10-06T06:40:28.693Z,4.30
2022-10-06T06:42:57.568Z,5.30
2022-10-06T06:46:16.805Z,5.60
2022-10-06T06:49:04.550Z,5.70
2022-10-06T06:51:40.537Z,5.00
2022-10-06T06:54:11.352Z,4.70
2022-10-06T06:56:43.040Z,4.80
2022-10-06T06:59:13.656Z,5.50
2022-10-06T07:01:49.426Z,4.70
2022-10-06T07:04:21.609Z,4.50
2022-10-06T07:06:59.053Z,3.80
2022-10-06T07:09:30.600Z,5.40
2022-10-06T07:12:11.661Z,5.00
2022-10-06T07:15:03.842Z,5.10
2022-10-06T07:17:54.682Z,4.70
2022-10-06T07:20:42.227Z,4.70
2022-10-06T07:23:36.301Z,5.20
2022-10-06T07:26:07.424Z,4.40
2022-10-06T07:28:36.080Z,4.90
2022-10-06T07:31:05.306Z,4.40
2022-10-06T07:33:34.409Z,5.00
2022-10-06T07:36:05.941Z,4.60
2022-10-06T07:38:44.033Z,7.30
2022-10-06T07:41:19.480Z,5.60
2022-10-06T07:43:57.276Z,5.70
2022-10-06T07:46:28.204Z,7.60
2022-10-06T07:49:04.340Z,6.20
2022-10-06T07:51:32.887Z,5.80
2022-10-06T07:54:03.035Z,6.00
2022-10-06T07:57:20.666Z,5.00
2022-10-06T07:59:48.988Z,5.10
2022-10-06T08:02:20.075Z,5.40
2022-10-06T08:04:48.572Z,5.20
2022-10-06T08:07:17.054Z,4.60
2022-10-06T08:09:45.460Z,4.90
2022-10-06T08:12:32.004Z,4.80
2022-10-06T08:15:07.039Z,4.70
2022-10-06T08:17:36.842Z,5.30
2022-10-06T08:20:09.337Z,4.70
2022-10-06T08:22:38.995Z,4.20
2022-10-06T08:25:10.298Z,4.00
2022-10-06T08:27:40.581Z,3.70
2022-10-06T08:30:11.539Z,4.00
2022-10-06T08:32:43.011Z,3.50
2022-10-06T08:35:11.758Z,3.90
2022-10-06T08:37:40.151Z,3.90
2022-10-06T08:40:14.889Z,4.10
2022-10-06T08:42:48.983Z,4.20
2022-10-06T08:45:38.566Z,4.70
2022-10-06T08:48:20.341Z,3.50
2022-10-06T08:51:06.771Z,3.70
2022-10-06T08:54:04.005Z,3.50
2022-10-06T08:56:54.704Z,4.40
2022-10-06T08:59:23.358Z,3.40
2022-10-06T09:01:54.993Z,3.60
2022-10-06T09:04:28.908Z,3.90
2022-10-06T09:07:06.590Z,3.40
2022-10-06T09:10:11.005Z,4.30
2022-10-06T09:12:55.130Z,3.20
2022-10-06T09:15:35.258Z,2.90
2022-10-06T09:19:06.651Z,2.80
2022-10-06T09:21:42.207Z,2.80
2022-10-06T09:27:16.861Z,2.70
2022-10-06T09:29:48.813Z,2.80
2022-10-06T09:32:19.982Z,3.50
2022-10-06T09:35:02.924Z,2.80
2022-10-06T09:38:09.007Z,2.90
2022-10-06T09:40:39.563Z,2.90
2022-10-06T09:43:34.260Z,3.10
2022-10-06T09:46:28.640Z,3.00
2022-10-06T09:49:07.514Z,2.40
2022-10-06T09:51:38.261Z,2.80
2022-10-06T09:54:17.135Z,3.20
2022-10-06T09:59:40.335Z,3.10
2022-10-06T10:02:41.128Z,3.00
2022-10-06T10:05:23.076Z,3.10
2022-10-06T10:08:22.494Z,3.20
2022-10-06T10:11:30.146Z,2.60
2022-10-06T10:13:59.617Z,3.70
2022-10-06T10:16:34.984Z,2.80
2022-10-06T10:19:05.914Z,2.80
2022-10-06T10:21:35.606Z,2.60
2022-10-06T10:24:20.169Z,2.60
2022-10-06T10:27:05.328Z,2.70
2022-10-06T10:30:11.849Z,2.50
2022-10-06T10:33:09.311Z,2.50
2022-10-06T10:35:47.184Z,2.00
2022-10-06T10:38:20.807Z,2.40
2022-10-06T10:41:10.160Z,2.50
2022-10-06T10:44:09.958Z,2.60
2022-10-06T10:47:08.566Z,2.80
2022-10-06T10:49:39.542Z,2.50
2022-10-06T10:52:20.915Z,2.90
2022-10-06T10:55:29.345Z,2.30
2022-10-06T10:58:07.995Z,2.10
2022-10-06T11:00:42.738Z,1.90
2022-10-06T11:03:17.487Z,1.80
2022-10-06T11:06:18.226Z,2.20
2022-10-06T11:09:32.737Z,2.00
2022-10-06T11:12:29.447Z,2.20
2022-10-06T11:15:19.218Z,1.70
2022-10-06T11:18:01.455Z,1.80
2022-10-06T11:20:49.192Z,1.90
2022-10-06T11:23:44.520Z,2.30
2022-10-06T11:26:45.261Z,1.90
2022-10-06T11:29:51.394Z,2.00
2022-10-06T11:32:26.691Z,1.80
2022-10-06T11:34:55.292Z,1.90
2022-10-06T11:37:49.416Z,1.90
2022-10-06T11:40:56.324Z,1.90
2022-10-06T11:44:04.744Z,2.10
2022-10-06T11:46:49.526Z,2.00
2022-10-06T11:49:29.852Z,2.10
2022-10-06T11:52:08.315Z,1.80
2022-10-06T11:54:40.006Z,2.20
2022-10-06T11:57:29.329Z,1.70
2022-10-06T12:00:05.285Z,2.00
2022-10-06T12:02:40.888Z,1.60
2022-10-06T12:05:54.201Z,1.80
2022-10-06T12:08:03.859Z,2.70
2022-10-06T12:10:35.625Z,2.50
2022-10-06T12:14:01.485Z,2.10
2022-10-06T12:19:42.425Z,1.90
2022-10-06T12:22:25.828Z,1.70
2022-10-06T12:25:17.657Z,1.70
2022-10-06T12:28:21.151Z,1.90
2022-10-06T12:31:25.442Z,1.50
2022-10-06T12:33:54.093Z,2.10
2022-10-06T12:36:31.730Z,1.60
2022-10-06T12:39:29.569Z,1.50
2022-10-06T12:42:17.306Z,1.60
2022-10-06T12:44:50.155Z,2.10
2022-10-06T12:47:33.956Z,1.80
2022-10-06T12:50:27.294Z,1.90
2022-10-06T12:53:14.082Z,1.60
2022-10-06T12:55:51.595Z,1.80
2022-10-06T12:58:32.556Z,1.70
2022-10-06T13:01:04.059Z,1.90
2022-10-06T13:03:32.580Z,1.80
2022-10-06T13:06:04.058Z,2.10
2022-10-06T13:08:41.514Z,2.30
2022-10-06T13:11:14.080Z,2.20
2022-10-06T13:14:13.034Z,1.90
2022-10-06T13:16:47.506Z,2.50
2022-10-06T13:19:36.049Z,1.80
2022-10-06T13:22:04.898Z,2.30
2022-10-06T13:24:33.322Z,2.00
2022-10-06T13:27:03.134Z,1.90
2022-10-06T13:29:32.197Z,1.80
2022-10-06T13:32:02.608Z,2.10
2022-10-06T13:34:35.021Z,2.20
2022-10-06T13:37:03.659Z,2.10
2022-10-06T13:39:32.291Z,2.10
2022-10-06T13:42:20.494Z,2.00
2022-10-06T13:45:02.134Z,2.10
2022-10-06T13:47:30.874Z,2.00
2022-10-06T13:50:06.596Z,1.70
2022-10-06T13:52:47.122Z,1.40
2022-10-06T13:55:18.481Z,1.80
2022-10-06T13:58:08.574Z,2.00
2022-10-06T14:00:51.692Z,2.20
2022-10-06T14:03:28.639Z,1.90
2022-10-06T14:06:21.492Z,1.90
2022-10-06T14:08:57.586Z,2.10
2022-10-06T14:11:30.006Z,1.70
2022-10-06T14:14:03.159Z,1.80
2022-10-06T14:16:32.127Z,2.20
2022-10-06T14:19:06.131Z,1.90
2022-10-06T14:21:42.002Z,2.00
2022-10-06T14:24:16.306Z,1.90
2022-10-06T14:26:46.513Z,2.20
2022-10-06T14:29:14.862Z,1.90
2022-10-06T14:31:44.359Z,1.90
2022-10-06T14:34:15.592Z,1.70
2022-10-06T14:36:51.561Z,2.00
2022-10-06T14:39:20.347Z,1.70
2022-10-06T14:41:48.784Z,1.90
2022-10-06T14:44:17.576Z,1.60
2022-10-06T14:46:48.915Z,1.70
2022-10-06T14:49:17.798Z,1.60
2022-10-06T14:51:46.689Z,1.90
2022-10-06T14:54:15.441Z,2.00
2022-10-06T14:56:44.206Z,2.10
2022-10-06T14:59:17.348Z,2.80
2022-10-06T15:01:47.511Z,2.40
2022-10-06T15:04:24.434Z,3.00
2022-10-06T15:07:11.403Z,2.30
2022-10-06T15:09:39.918Z,2.60
2022-10-06T15:12:08.473Z,2.00
2022-10-06T15:14:40.050Z,2.60
2022-10-06T15:17:08.971Z,2.30
2022-10-06T15:19:37.516Z,2.30
2022-10-06T15:22:09.056Z,2.50
2022-10-06T15:24:37.394Z,2.40
2022-10-06T15:27:25.286Z,2.40
2022-10-06T15:29:54.230Z,2.00
2022-10-06T15:32:22.720Z,2.50
2022-10-06T15:34:52.417Z,2.20
2022-10-06T15:37:20.785Z,2.30
2022-10-06T15:39:49.087Z,2.00
2022-10-06T15:42:20.246Z,1.80
2022-10-06T15:44:50.098Z,2.10
2022-10-06T15:47:18.426Z,2.10
2022-10-06T15:49:47.226Z,2.10
2022-10-06T15:52:17.743Z,2.00
2022-10-06T15:54:48.261Z,2.40
2022-10-06T15:57:20.644Z,2.00
2022-10-06T15:59:49.626Z,1.80
2022-10-06T16:02:20.275Z,2.10
2022-10-06T16:05:40.124Z,2.20
2022-10-06T16:08:08.446Z,2.20
2022-10-06T16:10:36.767Z,2.10
2022-10-06T16:13:05.876Z,2.40
2022-10-06T16:15:34.340Z,2.00
2022-10-06T16:18:02.802Z,2.50
2022-10-06T16:20:31.321Z,2.30
2022-10-06T16:22:59.798Z,2.40
2022-10-06T16:25:28.182Z,2.20
2022-10-06T16:27:56.583Z,2.60
2022-10-06T16:30:24.870Z,2.80
2022-10-06T16:32:53.293Z,1.90
2022-10-06T16:35:21.693Z,2.60
2022-10-06T16:37:50.281Z,2.40
2022-10-06T16:40:18.652Z,2.60
2022-10-06T16:42:47.025Z,2.60
2022-10-06T16:45:15.807Z,2.60
2022-10-06T16:47:44.388Z,2.80
2022-10-06T16:50:12.872Z,2.70
2022-10-06T16:52:41.526Z,2.50
2022-10-06T16:55:10.038Z,2.40
2022-10-06T16:57:38.432Z,2.30
2022-10-06T17:00:07.555Z,2.50
2022-10-06T17:02:36.054Z,2.40
2022-10-06T17:05:05.710Z,2.20
2022-10-06T17:07:34.357Z,2.10
2022-10-06T17:10:19.495Z,2.20
2022-10-06T17:12:49.193Z,2.20
2022-10-06T17:15:17.536Z,2.30
2022-10-06T17:17:46.221Z,2.40
2022-10-06T17:20:16.044Z,2.70
2022-10-06T17:22:44.639Z,2.40
2022-10-06T17:25:14.348Z,2.30
2022-10-06T17:27:43.856Z,2.10
2022-10-06T17:30:12.991Z,2.40
2022-10-06T17:32:41.659Z,2.90
2022-10-06T17:35:10.324Z,2.60
2022-10-06T17:37:40.510Z,1.90
2022-10-06T17:40:09.314Z,2.40
2022-10-06T17:42:37.891Z,2.00
2022-10-06T17:45:06.753Z,2.60
2022-10-06T17:47:37.858Z,2.00
2022-10-06T17:50:14.357Z,2.30
2022-10-06T17:52:43.107Z,2.10
2022-10-06T17:55:12.732Z,2.70
2022-10-06T17:57:41.085Z,2.60
2022-10-06T18:00:11.204Z,2.60
2022-10-06T18:02:42.329Z,2.40
2022-10-06T18:05:11.037Z,3.00
2022-10-06T18:07:40.406Z,2.40
2022-10-06T18:12:58.187Z,2.40
2022-10-06T18:15:27.301Z,2.80
2022-10-06T18:17:56.990Z,2.60
2022-10-06T18:20:30.199Z,2.30
2022-10-06T18:23:01.513Z,2.80
2022-10-06T18:25:31.045Z,2.70
2022-10-06T18:27:59.629Z,3.80
2022-10-06T18:30:29.395Z,3.40
2022-10-06T18:36:12.328Z,4.60
2022-10-06T18:38:45.537Z,5.30
2022-10-06T18:41:19.571Z,5.50
2022-10-06T18:43:48.741Z,4.80
2022-10-06T18:46:37.009Z,5.40
2022-10-06T18:49:12.581Z,4.70
2022-10-06T18:51:49.072Z,5.00
2022-10-06T18:54:22.442Z,6.00
2022-10-06T18:56:53.447Z,6.20
2022-10-06T18:59:28.055Z,6.20
2022-10-06T19:01:56.983Z,7.00
2022-10-06T19:04:25.870Z,5.70
2022-10-06T19:06:55.645Z,6.10
2022-10-06T19:09:25.594Z,6.60
2022-10-06T19:11:56.839Z,6.40
2022-10-06T19:14:30.033Z,7.00
2022-10-06T19:17:01.408Z,6.90
2022-10-06T19:19:31.600Z,6.10
2022-10-06T19:22:02.846Z,6.30
2022-10-06T19:24:36.434Z,6.30
2022-10-06T19:27:12.306Z,5.40
2022-10-06T19:29:50.857Z,6.00
2022-10-06T19:32:24.041Z,6.50
2022-10-06T19:34:52.673Z,5.40
2022-10-06T19:37:21.071Z,6.00
2022-10-06T19:39:50.354Z,6.10
2022-10-06T19:42:38.512Z,5.70
2022-10-06T19:45:08.721Z,5.90
2022-10-06T19:47:37.218Z,5.90
2022-10-06T19:50:11.622Z,7.20
2022-10-06T19:52:42.130Z,8.30
2022-10-06T19:57:38.818Z,17.50
2022-10-06T20:00:08.987Z,25.00
2022-10-06T20:02:44.387Z,20.40
2022-10-06T20:07:45.186Z,17.20
2022-10-06T20:10:14.820Z,16.40
2022-10-06T20:12:43.425Z,19.30
2022-10-06T20:15:13.133Z,15.90
2022-10-06T20:17:42.798Z,15.10
2022-10-06T20:20:11.532Z,10.40
2022-10-06T20:22:40.214Z,9.70
2022-10-06T20:25:08.986Z,9.70
2022-10-06T20:27:37.380Z,9.40
2022-10-06T20:30:07.465Z,10.10
2022-10-06T20:32:35.860Z,9.00
2022-10-06T20:35:05.281Z,9.30
2022-10-06T20:37:33.642Z,8.70
2022-10-06T20:40:20.652Z,8.70
2022-10-06T20:42:54.970Z,9.90
2022-10-06T20:45:23.765Z,10.00
2022-10-06T20:47:52.245Z,9.60
2022-10-06T20:50:21.149Z,9.70
2022-10-06T20:52:49.717Z,9.20
2022-10-06T20:55:18.319Z,9.60
2022-10-06T20:57:48.910Z,9.70
2022-10-06T21:00:18.005Z,9.00
2022-10-06T21:02:46.602Z,9.40
2022-10-06T21:05:15.106Z,9.20
2022-10-06T21:07:44.122Z,7.90
2022-10-06T21:10:12.632Z,9.30
2022-10-06T21:12:40.953Z,8.20
2022-10-06T21:15:10.030Z,8.30
2022-10-06T21:17:39.564Z,8.10
2022-10-06T21:22:36.377Z,8.90
2022-10-06T21:25:05.511Z,7.20
2022-10-06T21:27:34.072Z,7.30
2022-10-06T21:30:03.599Z,6.90
2022-10-06T21:32:32.880Z,6.70
2022-10-06T21:35:01.197Z,6.50
2022-10-06T21:37:29.534Z,6.50
2022-10-06T21:40:02.141Z,6.60
2022-10-06T21:42:31.692Z,7.30
2022-10-06T21:45:00.096Z,5.40
2022-10-06T21:47:28.505Z,5.50
2022-10-06T21:49:56.948Z,5.60
2022-10-06T21:52:25.333Z,5.60
2022-10-06T21:54:53.703Z,6.00
2022-10-06T21:57:22.212Z,5.70
2022-10-06T21:59:50.695Z,5.50
2022-10-06T22:02:19.097Z,5.30
2022-10-06T22:04:47.428Z,5.40
2022-10-06T22:07:16.056Z,5.00
2022-10-06T22:09:44.309Z,5.60
2022-10-06T22:12:12.790Z,4.60
2022-10-06T22:14:41.167Z,5.20
2022-10-06T22:17:09.623Z,4.90
2022-10-06T22:19:37.921Z,5.00
2022-10-06T22:22:06.340Z,4.30
2022-10-06T22:24:34.860Z,5.00
2022-10-06T22:27:04.389Z,5.30
2022-10-06T22:29:32.844Z,5.10
2022-10-06T22:32:01.283Z,5.50
2022-10-06T22:34:29.852Z,4.60
2022-10-06T22:36:58.621Z,5.20
2022-10-06T22:39:26.836Z,5.20
2022-10-06T22:41:55.174Z,5.20
2022-10-06T22:44:23.614Z,4.60
2022-10-06T22:46:52.107Z,5.40
2022-10-06T22:49:20.728Z,5.30
2022-10-06T22:51:48.994Z,5.10
2022-10-06T22:54:19.306Z,4.90
2022-10-06T22:56:47.667Z,5.80
2022-10-06T22:59:16.219Z,5.50
2022-10-06T23:01:44.657Z,6.10
2022-10-06T23:04:13.319Z,5.30
2022-10-06T23:06:41.620Z,5.40
2022-10-06T23:09:10.072Z,6.00
2022-10-06T23:11:38.402Z,5.10
2022-10-06T23:14:06.970Z,5.40
2022-10-06T23:16:35.428Z,5.80
2022-10-06T23:19:03.919Z,6.40
2022-10-06T23:21:32.515Z,5.20
2022-10-06T23:24:01.467Z,5.20
2022-10-06T23:26:31.995Z,5.50
2022-10-06T23:29:01.602Z,5.50
2022-10-06T23:31:30.859Z,6.10
2022-10-06T23:33:59.313Z,5.70
2022-10-06T23:36:28.808Z,6.10
2022-10-06T23:38:57.295Z,5.40
2022-10-06T23:41:25.847Z,5.60
2022-10-06T23:43:54.637Z,5.90
2022-10-06T23:46:23.020Z,5.80
2022-10-06T23:48:51.399Z,5.90
2022-10-06T23:51:20.083Z,5.70
2022-10-06T23:53:48.672Z,5.60
2022-10-06T23:56:19.125Z,5.40
2022-10-06T23:58:47.983Z,4.90
